Ramah, Texas
Current Conditions -  °F | °C
As of 4:35 AM on Sunday 23 Nov 2014 (Local Time) from KOCH Reporting Station
Overcast Overcast  
Wind Chill: 17°   Ceiling: 500
Heat Index: 17°   Visibility: 10mi
Dew Point: 16°   Wind: 9mph
Humidity: 94%   Direction: 120°ESE
Pressure: 29.61"   Gusts: NA
Location:  31.9382°N, 94.2541°W
Report Text: KOCH 231035Z AUTO 12008KT 10SM OVC005 17/16 A2961 RMK AO1 P0004
Loading
Personal Weather Stations






























Interactive Weather Map New forecast layout! Learn more

10-Day Weather Forecast

Advertisements
Track Severe Weather on mobile